createdAt,value
2022-08-27T00:00:45.964Z,93824.97
2022-08-27T00:03:13.372Z,93838.19
2022-08-27T00:05:40.785Z,93831.38
2022-08-27T00:08:09.098Z,93828.19
2022-08-27T00:10:36.054Z,93828.72
2022-08-27T00:13:03.084Z,93826.06
2022-08-27T00:15:30.067Z,93825.81
2022-08-27T00:17:57.033Z,93827.66
2022-08-27T00:20:26.122Z,93820.41
2022-08-27T00:22:53.415Z,93817.31
2022-08-27T00:25:20.638Z,93812.28
2022-08-27T00:27:47.422Z,93812.00
2022-08-27T00:30:17.038Z,93824.66
2022-08-27T00:32:44.494Z,93816.03
2022-08-27T00:35:12.045Z,93813.94
2022-08-27T00:37:38.814Z,93810.25
2022-08-27T00:40:07.971Z,93814.75
2022-08-27T00:42:34.775Z,93816.81
2022-08-27T00:45:01.644Z,93823.16
2022-08-27T00:47:30.212Z,93818.91
2022-08-27T00:50:01.312Z,93818.38
2022-08-27T00:52:53.804Z,93824.44
2022-08-27T00:55:30.254Z,93824.16
2022-08-27T00:58:18.575Z,93826.25
2022-08-27T01:00:46.712Z,93825.44
2022-08-27T01:03:14.208Z,93821.53
2022-08-27T01:05:43.212Z,93822.03
2022-08-27T01:08:25.044Z,93824.41
2022-08-27T01:10:52.132Z,93828.59
2022-08-27T01:13:21.905Z,93830.44
2022-08-27T01:16:09.665Z,93837.53
2022-08-27T01:18:37.801Z,93837.81
2022-08-27T01:21:13.069Z,93834.41
2022-08-27T01:23:54.657Z,93842.06
2022-08-27T01:26:21.935Z,93838.63
2022-08-27T01:28:49.194Z,93838.91
2022-08-27T01:31:16.036Z,93844.94
2022-08-27T01:33:54.866Z,93846.28
2022-08-27T01:36:21.604Z,93842.59
2022-08-27T01:38:48.384Z,93843.16
2022-08-27T01:41:15.373Z,93849.47
2022-08-27T01:43:42.294Z,93850.50
2022-08-27T01:46:09.098Z,93847.34
2022-08-27T01:48:35.884Z,93855.75
2022-08-27T01:51:02.672Z,93844.72
2022-08-27T01:53:29.422Z,93850.47
2022-08-27T01:55:56.534Z,93853.63
2022-08-27T01:58:26.995Z,93844.69
2022-08-27T02:00:57.296Z,93833.16
2022-08-27T02:03:24.604Z,93839.97
2022-08-27T02:05:52.045Z,93836.56
2022-08-27T02:08:19.404Z,93837.91
2022-08-27T02:10:48.137Z,93832.94
2022-08-27T02:13:15.590Z,93835.53
2022-08-27T02:15:43.014Z,93848.19
2022-08-27T02:18:10.652Z,93846.84
2022-08-27T02:20:37.555Z,93842.63
2022-08-27T02:23:04.912Z,93843.94
2022-08-27T02:25:31.772Z,93833.19
2022-08-27T02:28:00.480Z,93833.72
2022-08-27T02:30:28.885Z,93834.22
2022-08-27T02:32:55.767Z,93832.13
2022-08-27T02:35:24.641Z,93832.63
2022-08-27T02:37:52.613Z,93823.16
2022-08-27T02:40:22.197Z,93823.97
2022-08-27T02:42:49.946Z,93822.13
2022-08-27T02:45:17.690Z,93822.63
2022-08-27T02:47:44.573Z,93811.66
2022-08-27T02:50:13.445Z,93812.66
2022-08-27T02:52:41.184Z,93808.25
2022-08-27T02:55:08.927Z,93814.56
2022-08-27T02:57:36.421Z,93813.25
2022-08-27T03:00:10.344Z,93821.41
2022-08-27T03:02:37.320Z,93834.22
2022-08-27T03:05:05.013Z,93838.94
2022-08-27T03:07:31.775Z,93838.16
2022-08-27T03:09:58.460Z,93834.78
2022-08-27T03:12:25.282Z,93829.81
2022-08-27T03:14:52.187Z,93835.31
2022-08-27T03:17:37.468Z,93831.34
2022-08-27T03:20:06.253Z,93829.50
2022-08-27T03:22:32.984Z,93824.28
2022-08-27T03:25:02.965Z,93829.00
2022-08-27T03:27:29.796Z,93819.00
2022-08-27T03:29:58.677Z,93816.38
2022-08-27T03:32:28.685Z,93817.72
2022-08-27T03:34:58.567Z,93824.25
2022-08-27T03:37:25.862Z,93818.53
2022-08-27T03:39:52.987Z,93817.69
2022-08-27T03:42:19.805Z,93820.59
2022-08-27T03:44:46.505Z,93824.78
2022-08-27T03:47:13.664Z,93818.50
2022-08-27T03:49:40.863Z,93822.44
2022-08-27T03:52:08.432Z,93816.16
2022-08-27T03:54:36.328Z,93823.25
2022-08-27T03:57:03.164Z,93811.69
2022-08-27T03:59:30.032Z,93816.91
2022-08-27T04:01:57.275Z,93819.56
2022-08-27T04:04:24.353Z,93815.63
2022-08-27T04:06:51.245Z,93811.69
2022-08-27T04:09:18.512Z,93818.00
2022-08-27T04:11:45.302Z,93817.22
2022-08-27T04:14:24.853Z,93826.13
2022-08-27T04:16:54.535Z,93825.59
2022-08-27T04:19:26.430Z,93824.28
2022-08-27T04:21:54.104Z,93821.16
2022-08-27T04:24:20.715Z,93828.50
2022-08-27T04:26:47.890Z,93821.41
2022-08-27T04:29:14.581Z,93821.69
2022-08-27T04:31:41.638Z,93819.56
2022-08-27T04:34:08.509Z,93822.19
2022-08-27T04:36:35.209Z,93827.44
2022-08-27T04:39:02.081Z,93818.00
2022-08-27T04:41:33.292Z,93823.22
2022-08-27T04:44:04.697Z,93820.59
2022-08-27T04:46:34.301Z,93823.50
2022-08-27T04:49:03.948Z,93824.03
2022-08-27T04:51:36.926Z,93825.31
2022-08-27T04:54:06.736Z,93827.69
2022-08-27T04:56:34.313Z,93825.31
2022-08-27T04:59:04.033Z,93826.63
2022-08-27T05:01:31.486Z,93822.72
2022-08-27T05:04:00.890Z,93823.47
2022-08-27T05:06:27.892Z,93825.34
2022-08-27T05:08:54.993Z,93827.69
2022-08-27T05:11:23.681Z,93831.09
2022-08-27T05:13:50.845Z,93848.69
2022-08-27T05:16:21.135Z,93843.97
2022-08-27T05:18:49.020Z,93845.78
2022-08-27T05:21:20.248Z,93849.75
2022-08-27T05:23:47.696Z,93851.59
2022-08-27T05:26:14.839Z,93853.13
2022-08-27T05:28:41.651Z,93845.25
2022-08-27T05:31:11.075Z,93851.56
2022-08-27T05:33:39.093Z,93853.13
2022-08-27T05:36:06.606Z,93859.69
2022-08-27T05:38:34.490Z,93860.22
2022-08-27T05:41:09.167Z,93864.41
2022-08-27T05:43:37.053Z,93865.22
2022-08-27T05:46:06.225Z,93863.09
2022-08-27T05:48:34.003Z,93868.34
2022-08-27T05:51:11.796Z,93861.75
2022-08-27T05:53:39.236Z,93861.38
2022-08-27T05:56:11.399Z,93865.78
2022-08-27T05:58:56.897Z,93865.28
2022-08-27T06:01:24.425Z,93861.41
2022-08-27T06:03:52.870Z,93864.78
2022-08-27T06:06:20.064Z,93866.03
2022-08-27T06:08:46.952Z,93868.69
2022-08-27T06:11:15.506Z,93872.56
2022-08-27T06:13:43.600Z,93871.22
2022-08-27T06:16:15.933Z,93867.31
2022-08-27T06:18:44.670Z,93871.59
2022-08-27T06:21:12.673Z,93873.47
2022-08-27T06:23:39.582Z,93870.44
2022-08-27T06:26:08.344Z,93874.94
2022-08-27T06:28:35.722Z,93871.94
2022-08-27T06:31:26.755Z,93878.69
2022-08-27T06:33:58.416Z,93873.84
2022-08-27T06:36:30.804Z,93867.00
2022-08-27T06:38:58.105Z,93873.63
2022-08-27T06:41:26.903Z,93871.88
2022-08-27T06:43:54.758Z,93867.78
2022-08-27T06:46:23.687Z,93870.28
2022-08-27T06:48:55.003Z,93866.69
2022-08-27T06:51:26.424Z,93868.00
2022-08-27T06:53:55.344Z,93866.16
2022-08-27T06:56:23.295Z,93876.66
2022-08-27T06:58:58.543Z,93872.13
2022-08-27T07:01:30.824Z,93873.25
2022-08-27T07:03:59.892Z,93876.84
2022-08-27T07:06:29.197Z,93882.00
2022-08-27T07:08:57.176Z,93892.13
2022-08-27T07:11:23.970Z,93869.88
2022-08-27T07:13:50.744Z,93882.91
2022-08-27T07:16:21.512Z,93890.50
2022-08-27T07:18:52.187Z,93893.69
2022-08-27T07:21:20.175Z,93885.50
2022-08-27T07:23:47.958Z,93886.19
2022-08-27T07:26:15.404Z,93893.84
2022-08-27T07:28:43.200Z,93885.72
2022-08-27T07:31:12.967Z,93884.28
2022-08-27T07:33:42.053Z,93881.22
2022-08-27T07:36:13.464Z,93881.84
2022-08-27T07:38:40.283Z,93883.88
2022-08-27T07:41:12.097Z,93890.97
2022-08-27T07:43:57.850Z,93886.50
2022-08-27T07:46:25.755Z,93882.69
2022-08-27T07:48:53.363Z,93889.09
2022-08-27T07:51:21.962Z,93883.50
2022-08-27T07:53:48.666Z,93892.56
2022-08-27T07:56:15.727Z,93899.84
2022-08-27T07:58:43.360Z,93901.41
2022-08-27T08:01:10.888Z,93906.28
2022-08-27T08:03:37.684Z,93909.16
2022-08-27T08:06:06.565Z,93902.72
2022-08-27T08:08:35.108Z,93912.63
2022-08-27T08:11:03.380Z,93914.00
2022-08-27T08:13:31.102Z,93906.25
2022-08-27T08:15:59.061Z,93920.72
2022-08-27T08:18:26.882Z,93915.63
2022-08-27T08:20:58.529Z,93915.44
2022-08-27T08:23:27.518Z,93903.66
2022-08-27T08:25:56.048Z,93907.53
2022-08-27T08:28:22.875Z,93906.91
2022-08-27T08:30:49.714Z,93916.16
2022-08-27T08:33:17.346Z,93905.56
2022-08-27T08:35:44.034Z,93919.94
2022-08-27T08:38:10.924Z,93909.22
2022-08-27T08:40:43.345Z,93903.56
2022-08-27T08:43:33.532Z,93900.09
2022-08-27T08:46:09.994Z,93895.41
2022-08-27T08:48:37.652Z,93905.47
2022-08-27T08:51:17.191Z,93907.56
2022-08-27T08:53:51.398Z,93898.44
2022-08-27T08:56:22.154Z,93903.16
2022-08-27T08:58:57.725Z,93897.28
2022-08-27T09:01:27.085Z,93899.59
2022-08-27T09:04:07.523Z,93905.53
2022-08-27T09:06:45.767Z,93906.91
2022-08-27T09:09:40.244Z,93903.22
2022-08-27T09:12:14.945Z,93905.91
2022-08-27T09:15:05.105Z,93898.03
2022-08-27T09:17:32.643Z,93888.41
2022-08-27T09:19:59.433Z,93891.75
2022-08-27T09:22:55.695Z,93895.78
2022-08-27T09:25:37.723Z,93883.38
2022-08-27T09:28:31.151Z,93871.84
2022-08-27T09:31:03.194Z,93876.25
2022-08-27T09:33:44.386Z,93875.34
2022-08-27T09:36:22.956Z,93874.06
2022-08-27T09:38:58.117Z,93862.69
2022-08-27T09:41:29.526Z,93878.69
2022-08-27T09:44:00.946Z,93862.28
2022-08-27T09:46:28.275Z,93858.72
2022-08-27T09:48:55.524Z,93861.78
2022-08-27T09:51:25.799Z,93859.31
2022-08-27T09:54:01.136Z,93862.78
2022-08-27T09:56:30.775Z,93855.22
2022-08-27T09:59:32.404Z,93849.00
2022-08-27T10:02:14.920Z,93862.28
2022-08-27T10:04:53.114Z,93858.06
2022-08-27T10:07:23.565Z,93863.97
2022-08-27T10:10:00.781Z,93858.09
2022-08-27T10:12:29.560Z,93859.16
2022-08-27T10:14:59.774Z,93864.34
2022-08-27T10:17:38.802Z,93856.84
2022-08-27T10:20:08.606Z,93860.13
2022-08-27T10:23:01.761Z,93854.78
2022-08-27T10:25:37.364Z,93848.25
2022-08-27T10:28:18.551Z,93846.13
2022-08-27T10:30:54.022Z,93845.84
2022-08-27T10:33:50.954Z,93844.75
2022-08-27T10:36:35.611Z,93838.34
2022-08-27T10:39:30.414Z,93847.69
2022-08-27T10:42:25.290Z,93840.97
2022-08-27T10:45:31.376Z,93844.94
2022-08-27T10:48:14.882Z,93837.94
2022-08-27T10:50:54.672Z,93830.16
2022-08-27T10:53:52.634Z,93823.97
2022-08-27T10:56:33.461Z,93822.09
2022-08-27T10:59:18.691Z,93815.13
2022-08-27T11:02:13.399Z,93819.13
2022-08-27T11:04:44.678Z,93816.84
2022-08-27T11:07:22.376Z,93818.69
2022-08-27T11:10:15.675Z,93814.16
2022-08-27T11:12:50.582Z,93810.38
2022-08-27T11:15:27.704Z,93810.59
2022-08-27T11:18:34.369Z,93806.63
2022-08-27T11:21:14.222Z,93806.19
2022-08-27T11:23:45.675Z,93810.16
2022-08-27T11:26:12.815Z,93812.69
2022-08-27T11:28:42.332Z,93803.06
2022-08-27T11:31:40.766Z,93805.69
2022-08-27T11:34:26.803Z,93799.94
2022-08-27T11:37:12.526Z,93786.44
2022-08-27T11:40:06.559Z,93788.31
2022-08-27T11:42:45.813Z,93786.72
2022-08-27T11:45:24.743Z,93785.59
2022-08-27T11:47:58.543Z,93790.91
2022-08-27T11:50:26.774Z,93775.00
2022-08-27T11:52:58.385Z,93782.72
2022-08-27T11:55:29.898Z,93779.31
2022-08-27T11:58:18.640Z,93775.75
2022-08-27T12:00:47.111Z,93776.22
2022-08-27T12:03:20.076Z,93775.03
2022-08-27T12:05:54.827Z,93759.69
2022-08-27T12:08:22.003Z,93762.81
2022-08-27T12:11:16.762Z,93771.63
2022-08-27T12:14:24.023Z,93763.13
2022-08-27T12:17:05.805Z,93761.13
2022-08-27T12:20:00.222Z,93752.28
2022-08-27T12:23:17.692Z,93746.34
2022-08-27T12:25:56.174Z,93737.09
2022-08-27T12:28:26.684Z,93739.09
2022-08-27T12:30:55.013Z,93741.44
2022-08-27T12:33:31.222Z,93733.47
2022-08-27T12:36:03.940Z,93725.88
2022-08-27T12:38:35.041Z,93736.59
2022-08-27T12:41:09.371Z,93731.75
2022-08-27T12:43:43.623Z,93734.66
2022-08-27T12:46:19.387Z,93736.22
2022-08-27T12:48:49.774Z,93737.75
2022-08-27T12:51:24.074Z,93733.00
2022-08-27T12:54:08.955Z,93731.56
2022-08-27T12:56:44.494Z,93741.47
2022-08-27T12:59:29.571Z,93728.19
2022-08-27T13:02:20.295Z,93733.09
2022-08-27T13:04:48.163Z,93724.84
2022-08-27T13:07:33.079Z,93733.69
2022-08-27T13:10:13.226Z,93734.09
2022-08-27T13:12:41.084Z,93741.31
2022-08-27T13:15:10.744Z,93736.84
2022-08-27T13:17:44.275Z,93732.06
2022-08-27T13:20:22.988Z,93738.19
2022-08-27T13:22:51.684Z,93738.56
2022-08-27T13:25:23.443Z,93724.88
2022-08-27T13:28:00.186Z,93725.41
2022-08-27T13:30:35.494Z,93727.34
2022-08-27T13:33:05.522Z,93722.78
2022-08-27T13:35:32.642Z,93735.22
2022-08-27T13:38:00.494Z,93734.75
2022-08-27T13:40:34.601Z,93736.72
2022-08-27T13:43:10.403Z,93731.00
2022-08-27T13:45:40.521Z,93729.00
2022-08-27T13:48:08.519Z,93732.94
2022-08-27T13:50:36.173Z,93722.41
2022-08-27T13:53:29.836Z,93716.03
2022-08-27T13:55:57.960Z,93710.34
2022-08-27T13:58:32.372Z,93709.91
2022-08-27T14:01:29.198Z,93719.06
2022-08-27T14:04:00.544Z,93719.28
2022-08-27T14:06:42.501Z,93728.69
2022-08-27T14:09:18.312Z,93732.34
2022-08-27T14:11:46.555Z,93730.59
2022-08-27T14:14:14.052Z,93729.81
2022-08-27T14:16:41.446Z,93737.03
2022-08-27T14:19:24.904Z,93726.84
2022-08-27T14:21:52.495Z,93721.03
2022-08-27T14:24:19.252Z,93718.91
2022-08-27T14:26:53.095Z,93727.53
2022-08-27T14:29:20.424Z,93739.28
2022-08-27T14:31:47.670Z,93727.31
2022-08-27T14:34:14.846Z,93722.38
2022-08-27T14:36:42.520Z,93723.50
2022-08-27T14:39:09.584Z,93717.91
2022-08-27T14:41:37.144Z,93728.88
2022-08-27T14:44:04.583Z,93730.50
2022-08-27T14:46:36.162Z,93720.31
2022-08-27T14:49:12.924Z,93728.28
2022-08-27T14:51:41.071Z,93733.75
2022-08-27T14:54:07.962Z,93729.63
2022-08-27T14:56:34.802Z,93713.34
2022-08-27T14:59:01.593Z,93716.56
2022-08-27T15:01:29.572Z,93711.63
2022-08-27T15:03:57.544Z,93719.56
2022-08-27T15:06:25.272Z,93727.03
2022-08-27T15:08:53.371Z,93726.81
2022-08-27T15:11:25.546Z,93728.31
2022-08-27T15:13:53.172Z,93737.97
2022-08-27T15:16:31.884Z,93742.22
2022-08-27T15:19:01.266Z,93733.53
2022-08-27T15:21:30.554Z,93725.88
2022-08-27T15:24:00.812Z,93736.66
2022-08-27T15:26:28.332Z,93738.53
2022-08-27T15:28:55.354Z,93733.53
2022-08-27T15:31:22.377Z,93732.50
2022-08-27T15:33:49.660Z,93729.50
2022-08-27T15:36:16.568Z,93726.22
2022-08-27T15:38:44.725Z,93726.72
2022-08-27T15:41:11.992Z,93733.88
2022-08-27T15:43:39.206Z,93735.13
2022-08-27T15:46:06.278Z,93739.19
2022-08-27T15:48:33.832Z,93744.13
2022-08-27T15:51:05.922Z,93752.56
2022-08-27T15:53:34.574Z,93758.66
2022-08-27T15:56:04.025Z,93752.69
2022-08-27T15:58:31.002Z,93750.31
2022-08-27T16:01:14.269Z,93735.31
2022-08-27T16:03:42.402Z,93718.44
2022-08-27T16:06:09.545Z,93712.31
2022-08-27T16:08:41.904Z,93722.63
2022-08-27T16:11:09.300Z,93726.28
2022-08-27T16:13:36.840Z,93738.16
2022-08-27T16:16:04.084Z,93740.44
2022-08-27T16:18:32.893Z,93743.00
2022-08-27T16:21:00.793Z,93741.00
2022-08-27T16:23:28.452Z,93749.53
2022-08-27T16:25:56.183Z,93747.41
2022-08-27T16:28:23.585Z,93740.75
2022-08-27T16:30:51.619Z,93744.25
2022-08-27T16:33:19.132Z,93749.00
2022-08-27T16:35:46.661Z,93745.06
2022-08-27T16:38:13.680Z,93757.19
2022-08-27T16:40:44.092Z,93748.03
2022-08-27T16:43:13.722Z,93741.38
2022-08-27T16:45:41.438Z,93742.34
2022-08-27T16:48:26.760Z,93751.53
2022-08-27T16:50:53.594Z,93778.25
2022-08-27T16:53:22.205Z,93806.47
2022-08-27T16:55:50.280Z,93841.56
2022-08-27T16:58:20.232Z,93886.84
2022-08-27T17:00:50.571Z,93959.31
2022-08-27T17:03:18.550Z,93999.03
2022-08-27T17:05:45.450Z,94012.19
2022-08-27T17:08:13.644Z,93987.69
2022-08-27T17:10:46.500Z,93954.44
2022-08-27T17:13:18.901Z,93894.56
2022-08-27T17:15:52.129Z,93892.72
2022-08-27T17:18:21.380Z,93884.91
2022-08-27T17:20:49.350Z,93894.38
2022-08-27T17:23:38.620Z,93902.53
2022-08-27T17:26:07.708Z,93886.22
2022-08-27T17:28:34.450Z,93886.53
2022-08-27T17:31:02.428Z,93888.66
2022-08-27T17:33:38.885Z,93885.50
2022-08-27T17:36:07.142Z,93897.28
2022-08-27T17:38:34.228Z,93891.81
2022-08-27T17:41:04.061Z,93902.53
2022-08-27T17:43:31.551Z,93899.94
2022-08-27T17:45:59.313Z,93908.31
2022-08-27T17:48:26.837Z,93910.72
2022-08-27T17:50:53.931Z,93908.06
2022-08-27T17:53:20.792Z,93915.22
2022-08-27T17:55:47.550Z,93901.84
2022-08-27T17:58:14.341Z,93907.34
2022-08-27T18:00:45.064Z,93901.78
2022-08-27T18:03:17.791Z,93898.06
2022-08-27T18:05:46.390Z,93903.41
2022-08-27T18:08:14.991Z,93889.44
2022-08-27T18:10:42.751Z,93894.44
2022-08-27T18:13:10.870Z,93899.41
2022-08-27T18:15:41.910Z,93904.41
2022-08-27T18:18:09.970Z,93900.72
2022-08-27T18:20:37.200Z,93892.91
2022-08-27T18:23:08.610Z,93895.28
2022-08-27T18:25:37.210Z,93887.66
2022-08-27T18:28:07.362Z,93891.59
2022-08-27T18:30:34.544Z,93883.38
2022-08-27T18:33:02.583Z,93884.97
2022-08-27T18:35:31.507Z,93889.72
2022-08-27T18:37:58.520Z,93887.31
2022-08-27T18:40:30.986Z,93898.34
2022-08-27T18:42:58.203Z,93892.78
2022-08-27T18:45:28.583Z,93902.31
2022-08-27T18:47:58.180Z,93908.44
2022-08-27T18:50:25.710Z,93914.00
2022-08-27T18:52:54.453Z,93913.97
2022-08-27T18:55:25.761Z,93916.06
2022-08-27T18:57:52.433Z,93916.34
2022-08-27T19:00:20.620Z,93913.94
2022-08-27T19:02:52.601Z,93924.44
2022-08-27T19:05:29.088Z,93920.72
2022-08-27T19:07:58.415Z,93918.09
2022-08-27T19:10:26.027Z,93923.91
2022-08-27T19:12:53.210Z,93920.81
2022-08-27T19:15:20.469Z,93925.81
2022-08-27T19:17:51.522Z,93927.41
2022-08-27T19:20:18.746Z,93921.34
2022-08-27T19:22:46.761Z,93925.53
2022-08-27T19:25:13.885Z,93925.22
2022-08-27T19:27:40.977Z,93925.25
2022-08-27T19:30:08.559Z,93929.47
2022-08-27T19:32:35.311Z,93923.66
2022-08-27T19:35:01.998Z,93904.47
2022-08-27T19:37:30.785Z,93910.28
2022-08-27T19:39:57.627Z,93919.19
2022-08-27T19:42:24.428Z,93910.28
2022-08-27T19:44:51.221Z,93899.56
2022-08-27T19:47:21.606Z,93911.91
2022-08-27T19:49:49.894Z,93912.94
2022-08-27T19:52:16.694Z,93900.06
2022-08-27T19:55:03.340Z,93898.53
2022-08-27T19:57:30.199Z,93894.06
2022-08-27T19:59:56.981Z,93893.25
2022-08-27T20:02:23.805Z,93902.44
2022-08-27T20:05:14.333Z,93890.13
2022-08-27T20:07:37.360Z,93879.34
2022-08-27T20:10:08.186Z,93890.34
2022-08-27T20:12:36.479Z,93893.25
2022-08-27T20:15:05.440Z,93890.63
2022-08-27T20:17:32.861Z,93897.44
2022-08-27T20:20:00.630Z,93906.09
2022-08-27T20:22:28.360Z,93919.78
2022-08-27T20:24:55.159Z,93918.19
2022-08-27T20:27:22.185Z,93921.31
2022-08-27T20:29:48.944Z,93926.84
2022-08-27T20:32:15.650Z,93924.78
2022-08-27T20:34:42.500Z,93932.66
2022-08-27T20:37:09.522Z,93936.59
2022-08-27T20:39:36.215Z,93941.84
2022-08-27T20:42:03.122Z,93940.78
2022-08-27T20:44:30.151Z,93948.66
2022-08-27T20:46:59.467Z,93945.50
2022-08-27T20:49:28.006Z,93945.25
2022-08-27T20:52:03.336Z,93943.94
2022-08-27T20:54:31.760Z,93949.19
2022-08-27T20:56:58.856Z,93946.84
2022-08-27T20:59:44.419Z,93950.75
2022-08-27T21:02:12.675Z,93939.22
2022-08-27T21:04:45.962Z,93936.06
2022-08-27T21:07:13.636Z,93939.22
2022-08-27T21:09:56.538Z,93933.94
2022-08-27T21:12:26.110Z,93932.66
2022-08-27T21:14:55.779Z,93938.41
2022-08-27T21:17:24.601Z,93943.69
2022-08-27T21:19:51.410Z,93943.41
2022-08-27T21:22:18.710Z,93941.06
2022-08-27T21:24:47.504Z,93934.22
2022-08-27T21:27:15.702Z,93940.53
2022-08-27T21:29:44.769Z,93936.88
2022-08-27T21:32:12.230Z,93930.03
2022-08-27T21:34:39.193Z,93937.38
2022-08-27T21:37:05.980Z,93931.88
2022-08-27T21:39:34.339Z,93925.56
2022-08-27T21:42:01.810Z,93930.81
2022-08-27T21:44:29.336Z,93926.63
2022-08-27T21:46:56.433Z,93921.09
2022-08-27T21:49:23.129Z,93923.47
2022-08-27T21:51:49.820Z,93922.94
2022-08-27T21:54:16.526Z,93926.34
2022-08-27T21:56:43.695Z,93926.09
2022-08-27T21:59:10.515Z,93913.47
2022-08-27T22:01:37.634Z,93908.78
2022-08-27T22:04:04.283Z,93920.59
2022-08-27T22:06:30.942Z,93921.63
2022-08-27T22:08:57.545Z,93921.38
2022-08-27T22:11:25.693Z,93914.56
2022-08-27T22:13:53.106Z,93903.78
2022-08-27T22:16:19.867Z,93902.22
2022-08-27T22:18:46.534Z,93905.63
2022-08-27T22:21:13.476Z,93904.56
2022-08-27T22:23:44.753Z,93894.88
2022-08-27T22:26:12.149Z,93890.41
2022-08-27T22:28:38.875Z,93901.44
2022-08-27T22:31:07.522Z,93901.94
2022-08-27T22:33:34.377Z,93901.41
2022-08-27T22:36:01.088Z,93901.16
2022-08-27T22:38:27.716Z,93897.25
2022-08-27T22:40:54.347Z,93903.22
2022-08-27T22:43:21.257Z,93900.09
2022-08-27T22:45:47.926Z,93903.78
2022-08-27T22:48:14.525Z,93904.00
2022-08-27T22:50:41.372Z,93902.44
2022-08-27T22:53:08.352Z,93903.50
2022-08-27T22:55:35.589Z,93896.69
2022-08-27T22:58:02.298Z,93894.84
2022-08-27T23:00:32.275Z,93902.44
2022-08-27T23:02:59.311Z,93892.00
2022-08-27T23:05:26.925Z,93890.94
2022-08-27T23:07:54.882Z,93884.09
2022-08-27T23:10:24.230Z,93881.72
2022-08-27T23:12:53.727Z,93871.78
2022-08-27T23:15:23.709Z,93873.09
2022-08-27T23:17:50.727Z,93877.81
2022-08-27T23:20:21.476Z,93867.56
2022-08-27T23:22:49.369Z,93863.09
2022-08-27T23:25:36.300Z,93864.16
2022-08-27T23:28:06.526Z,93861.53
2022-08-27T23:30:34.457Z,93867.31
2022-08-27T23:33:01.630Z,93866.75
2022-08-27T23:35:29.368Z,93861.00
2022-08-27T23:37:56.379Z,93864.66
2022-08-27T23:40:23.673Z,93873.63
2022-08-27T23:42:50.739Z,93876.72
2022-08-27T23:45:21.501Z,93880.97
2022-08-27T23:47:48.693Z,93881.97
2022-08-27T23:50:16.149Z,93879.09
2022-08-27T23:52:42.892Z,93878.31
2022-08-27T23:55:11.120Z,93887.22
2022-08-27T23:57:38.639Z,93898.81
